createdAt,value
2019-01-27T00:01:32.374Z,98860.53
2019-01-27T00:04:02.629Z,98861.58
2019-01-27T00:06:32.752Z,98859.78
2019-01-27T00:09:04.910Z,98854.56
2019-01-27T00:11:35.924Z,98844.96
2019-01-27T00:14:06.906Z,98844.00
2019-01-27T00:16:37.459Z,98836.34
2019-01-27T00:19:08.174Z,98836.34
2019-01-27T00:21:38.540Z,98829.91
2019-01-27T00:24:10.185Z,98833.03
2019-01-27T00:26:40.344Z,98815.83
2019-01-27T00:29:10.894Z,98821.84
2019-01-27T00:31:41.568Z,98816.59
2019-01-27T00:34:11.597Z,98811.75
2019-01-27T00:36:41.878Z,98812.67
2019-01-27T00:39:12.794Z,98806.78
2019-01-27T00:41:43.324Z,98812.33
2019-01-27T00:44:14.648Z,98807.45
2019-01-27T00:46:45.179Z,98796.43
2019-01-27T00:49:15.537Z,98794.41
2019-01-27T00:51:45.682Z,98784.39
2019-01-27T00:54:16.168Z,98797.48
2019-01-27T00:56:46.373Z,98791.88
2019-01-27T00:59:16.574Z,98790.66
2019-01-27T01:01:46.820Z,98783.87
2019-01-27T01:04:17.126Z,98786.39
2019-01-27T01:06:47.808Z,98781.11
2019-01-27T01:09:18.366Z,98777.08
2019-01-27T01:11:48.690Z,98769.25
2019-01-27T01:14:19.118Z,98776.03
2019-01-27T01:16:49.457Z,98766.73
2019-01-27T01:19:19.723Z,98776.64
2019-01-27T01:21:50.418Z,98774.66
2019-01-27T01:24:20.846Z,98774.12
2019-01-27T01:26:51.416Z,98775.02
2019-01-27T01:29:21.560Z,98772.90
2019-01-27T01:31:51.877Z,98771.33
2019-01-27T01:34:22.370Z,98763.38
2019-01-27T01:36:52.767Z,98763.57
2019-01-27T01:39:28.870Z,98766.60
2019-01-27T01:41:59.453Z,98763.66
2019-01-27T01:44:30.095Z,98754.93
2019-01-27T01:47:00.574Z,98753.01
2019-01-27T01:49:30.926Z,98754.86
2019-01-27T01:52:01.390Z,98748.83
2019-01-27T01:54:31.976Z,98744.56
2019-01-27T01:57:02.907Z,98739.11
2019-01-27T01:59:33.247Z,98732.05
2019-01-27T02:02:03.850Z,98732.05
2019-01-27T02:04:34.332Z,98727.05
2019-01-27T02:07:04.578Z,98719.06
2019-01-27T02:09:35.000Z,98718.38
2019-01-27T02:12:05.456Z,98722.02
2019-01-27T02:14:36.014Z,98724.28
2019-01-27T02:17:06.432Z,98715.48
2019-01-27T02:19:36.579Z,98709.03
2019-01-27T02:22:07.515Z,98709.03
2019-01-27T02:24:38.679Z,98706.96
2019-01-27T02:27:08.956Z,98698.93
2019-01-27T02:29:39.227Z,98703.46
2019-01-27T02:32:09.663Z,98703.39
2019-01-27T02:34:39.919Z,98695.16
2019-01-27T02:37:10.565Z,98691.17
2019-01-27T02:39:40.856Z,98686.14
2019-01-27T02:42:11.682Z,98678.80
2019-01-27T02:44:42.085Z,98686.14
2019-01-27T02:47:12.518Z,98683.14
2019-01-27T02:49:42.741Z,98677.41
2019-01-27T02:52:13.280Z,98665.61
2019-01-27T02:54:43.654Z,98663.73
2019-01-27T02:57:14.124Z,98669.30
2019-01-27T02:59:45.624Z,98670.95
2019-01-27T03:02:16.190Z,98661.13
2019-01-27T03:04:46.411Z,98656.05
2019-01-27T03:07:26.299Z,98661.47
2019-01-27T03:09:56.536Z,98658.44
2019-01-27T03:12:38.093Z,98657.48
2019-01-27T03:15:09.133Z,98651.91
2019-01-27T03:17:39.572Z,98651.70
2019-01-27T03:20:11.192Z,98652.33
2019-01-27T03:22:41.672Z,98659.81
2019-01-27T03:25:12.938Z,98654.13
2019-01-27T03:27:43.439Z,98653.70
2019-01-27T03:30:17.754Z,98647.86
2019-01-27T03:32:48.745Z,98642.37
2019-01-27T03:35:19.266Z,98646.97
2019-01-27T03:37:49.609Z,98641.33
2019-01-27T03:40:20.035Z,98637.81
2019-01-27T03:42:50.806Z,98634.86
2019-01-27T03:45:21.444Z,98634.86
2019-01-27T03:47:52.166Z,98639.81
2019-01-27T03:50:22.854Z,98629.98
2019-01-27T03:52:53.415Z,98625.78
2019-01-27T03:55:23.659Z,98615.61
2019-01-27T03:57:54.086Z,98611.29
2019-01-27T04:00:24.953Z,98598.56
2019-01-27T04:02:55.780Z,98589.55
2019-01-27T04:05:26.236Z,98581.92
2019-01-27T04:07:56.530Z,98581.42
2019-01-27T04:10:26.817Z,98579.22
2019-01-27T04:12:57.422Z,98573.80
2019-01-27T04:15:27.726Z,98573.80
2019-01-27T04:17:58.163Z,98575.67
2019-01-27T04:20:28.434Z,98578.97
2019-01-27T04:22:58.747Z,98566.02
2019-01-27T04:25:29.288Z,98564.09
2019-01-27T04:27:59.598Z,98563.75
2019-01-27T04:30:32.710Z,98555.30
2019-01-27T04:33:03.063Z,98538.48
2019-01-27T04:35:33.426Z,98538.48
2019-01-27T04:38:03.589Z,98541.25
2019-01-27T04:40:33.764Z,98535.13
2019-01-27T04:43:04.422Z,98539.72
2019-01-27T04:45:40.846Z,98534.00
2019-01-27T04:48:11.326Z,98533.14
2019-01-27T04:50:41.447Z,98533.14
2019-01-27T04:53:11.742Z,98523.37
2019-01-27T04:55:42.205Z,98515.70
2019-01-27T04:58:12.712Z,98512.91
2019-01-27T05:00:43.207Z,98505.75
2019-01-27T05:03:31.007Z,98502.22
2019-01-27T05:06:01.386Z,98500.50
2019-01-27T05:08:31.578Z,98504.55
2019-01-27T05:11:01.779Z,98496.52
2019-01-27T05:13:32.215Z,98485.98
2019-01-27T05:16:02.988Z,98483.65
2019-01-27T05:18:33.452Z,98483.65
2019-01-27T05:21:03.703Z,98480.23
2019-01-27T05:23:34.021Z,98474.70
2019-01-27T05:26:04.662Z,98462.30
2019-01-27T05:28:35.029Z,98462.30
2019-01-27T05:31:05.345Z,98461.63
2019-01-27T05:33:35.630Z,98458.04
2019-01-27T05:36:06.081Z,98455.77
2019-01-27T05:38:36.392Z,98452.13
2019-01-27T05:41:06.895Z,98450.48
2019-01-27T05:43:37.460Z,98444.46
2019-01-27T05:46:07.770Z,98440.41
2019-01-27T05:48:38.219Z,98440.41
2019-01-27T05:51:08.562Z,98433.58
2019-01-27T05:53:38.762Z,98433.58
2019-01-27T05:56:09.224Z,98424.94
2019-01-27T05:58:39.431Z,98426.41
2019-01-27T06:01:09.708Z,98426.45
2019-01-27T06:03:40.164Z,98430.08
2019-01-27T06:06:10.506Z,98424.47
2019-01-27T06:08:41.170Z,98418.60
2019-01-27T06:11:11.391Z,98417.42
2019-01-27T06:13:41.497Z,98417.92
2019-01-27T06:16:12.159Z,98411.00
2019-01-27T06:18:43.302Z,98414.55
2019-01-27T06:21:13.443Z,98420.50
2019-01-27T06:23:43.528Z,98423.20
2019-01-27T06:26:13.593Z,98428.12
2019-01-27T06:28:43.763Z,98417.03
2019-01-27T06:31:14.630Z,98412.43
2019-01-27T06:33:49.290Z,98404.59
2019-01-27T06:36:19.660Z,98415.21
2019-01-27T06:38:49.701Z,98415.21
2019-01-27T06:41:20.279Z,98413.66
2019-01-27T06:43:51.014Z,98418.08
2019-01-27T06:46:21.905Z,98413.91
2019-01-27T06:48:52.297Z,98413.61
2019-01-27T06:51:22.327Z,98411.20
2019-01-27T06:53:52.471Z,98405.81
2019-01-27T06:56:23.666Z,98393.24
2019-01-27T06:59:16.019Z,98390.47
2019-01-27T07:02:05.466Z,98389.74
2019-01-27T07:04:40.605Z,98389.56
2019-01-27T07:07:16.762Z,98383.66
2019-01-27T07:10:06.180Z,98381.14
2019-01-27T07:12:41.884Z,98379.28
2019-01-27T07:15:30.418Z,98375.03
2019-01-27T07:18:25.613Z,98369.84
2019-01-27T07:21:26.617Z,98360.98
2019-01-27T07:24:18.766Z,98359.80
2019-01-27T07:26:58.050Z,98368.48
2019-01-27T07:29:47.287Z,98351.25
2019-01-27T07:32:51.616Z,98344.52
2019-01-27T07:35:39.299Z,98344.66
2019-01-27T07:38:31.655Z,98326.09
2019-01-27T07:41:20.708Z,98315.50
2019-01-27T07:44:10.191Z,98304.88
2019-01-27T07:47:01.702Z,98312.72
2019-01-27T07:49:49.535Z,98314.27
2019-01-27T07:52:38.660Z,98314.27
2019-01-27T07:55:33.426Z,98317.55
2019-01-27T07:58:37.603Z,98308.13
2019-01-27T08:01:23.252Z,98308.94
2019-01-27T08:04:03.865Z,98302.33
2019-01-27T08:06:53.292Z,98298.20
2019-01-27T08:09:42.741Z,98308.90
2019-01-27T08:12:38.089Z,98296.19
2019-01-27T08:15:30.023Z,98291.48
2019-01-27T08:18:19.254Z,98300.86
2019-01-27T08:21:20.634Z,98301.09
2019-01-27T08:24:24.739Z,98301.09
2019-01-27T08:27:16.660Z,98294.26
2019-01-27T08:30:05.156Z,98254.70
2019-01-27T08:33:00.258Z,98292.70
2019-01-27T08:35:41.078Z,98288.93
2019-01-27T08:38:20.497Z,98288.33
2019-01-27T08:41:15.281Z,98286.11
2019-01-27T08:44:01.561Z,98275.84
2019-01-27T08:46:40.064Z,98275.69
2019-01-27T08:49:10.176Z,98273.26
2019-01-27T08:51:41.731Z,98270.80
2019-01-27T08:54:12.267Z,98262.47
2019-01-27T08:56:42.386Z,98260.67
2019-01-27T08:59:12.510Z,98268.41
2019-01-27T09:02:04.435Z,98263.17
2019-01-27T09:04:48.759Z,98264.98
2019-01-27T09:07:50.126Z,98263.99
2019-01-27T09:10:42.711Z,98264.31
2019-01-27T09:13:40.123Z,98266.78
2019-01-27T09:16:25.480Z,98263.32
2019-01-27T09:19:13.293Z,98262.01
2019-01-27T09:22:05.132Z,98258.57
2019-01-27T09:24:45.903Z,98260.19
2019-01-27T09:27:35.422Z,98252.16
2019-01-27T09:30:32.869Z,98251.53
2019-01-27T09:33:16.298Z,98253.66
2019-01-27T09:36:11.702Z,98253.66
2019-01-27T09:38:54.482Z,98257.09
2019-01-27T09:41:46.916Z,98261.67
2019-01-27T09:44:34.895Z,98259.23
2019-01-27T09:47:31.520Z,98257.42
2019-01-27T09:50:23.255Z,98255.76
2019-01-27T09:53:03.644Z,98253.81
2019-01-27T09:55:52.706Z,98245.64
2019-01-27T09:58:45.056Z,98241.74
2019-01-27T10:01:25.039Z,98237.68
2019-01-27T10:04:29.195Z,98238.53
2019-01-27T10:07:18.078Z,98238.53
2019-01-27T10:10:12.696Z,98240.98
2019-01-27T10:13:07.754Z,98244.44
2019-01-27T10:15:55.562Z,98227.07
2019-01-27T10:18:50.361Z,98223.28
2019-01-27T10:21:27.865Z,98232.14
2019-01-27T10:24:21.211Z,98207.86
2019-01-27T10:27:05.804Z,98201.80
2019-01-27T10:29:56.147Z,98210.36
2019-01-27T10:33:03.283Z,98199.67
2019-01-27T10:35:51.004Z,98190.66
2019-01-27T10:38:45.909Z,98182.42
2019-01-27T10:41:43.875Z,98174.70
2019-01-27T10:44:48.209Z,98175.00
2019-01-27T10:47:36.281Z,98186.82
2019-01-27T10:50:31.767Z,98189.58
2019-01-27T10:53:20.971Z,98181.00
2019-01-27T10:56:10.173Z,98178.32
2019-01-27T10:58:56.308Z,98159.73
2019-01-27T11:02:00.723Z,98146.68
2019-01-27T11:05:03.455Z,98140.75
2019-01-27T11:07:50.220Z,98141.40
2019-01-27T11:10:45.505Z,98130.77
2019-01-27T11:13:34.638Z,98119.59
2019-01-27T11:16:39.209Z,98111.33
2019-01-27T11:19:23.519Z,98094.19
2019-01-27T11:22:11.378Z,98102.56
2019-01-27T11:25:09.208Z,98095.95
2019-01-27T11:28:13.282Z,98100.38
2019-01-27T11:31:04.922Z,98097.56
2019-01-27T11:33:42.900Z,98090.92
2019-01-27T11:36:33.450Z,98091.76
2019-01-27T11:39:25.099Z,98091.76
2019-01-27T11:42:12.633Z,98083.77
2019-01-27T11:44:54.705Z,98077.58
2019-01-27T11:47:43.758Z,98080.20
2019-01-27T11:50:42.750Z,98082.38
2019-01-27T11:53:13.148Z,98077.64
2019-01-27T11:55:43.487Z,98079.30
2019-01-27T11:58:13.741Z,98071.09
2019-01-27T12:00:48.047Z,98068.41
2019-01-27T12:03:18.563Z,98072.86
2019-01-27T12:05:48.698Z,98069.73
2019-01-27T12:08:19.732Z,98072.16
2019-01-27T12:10:50.155Z,98070.28
2019-01-27T12:13:20.594Z,98069.78
2019-01-27T12:15:50.825Z,98070.26
2019-01-27T12:18:21.347Z,98066.02
2019-01-27T12:20:51.751Z,98070.95
2019-01-27T12:23:22.177Z,98060.77
2019-01-27T12:25:53.651Z,98062.59
2019-01-27T12:28:24.209Z,98051.24
2019-01-27T12:30:54.353Z,98049.93
2019-01-27T12:33:24.476Z,98048.34
2019-01-27T12:35:54.719Z,98042.27
2019-01-27T12:38:25.367Z,98041.73
2019-01-27T12:40:55.519Z,98044.72
2019-01-27T12:43:25.769Z,98037.53
2019-01-27T12:45:56.130Z,98032.23
2019-01-27T12:48:26.335Z,98033.20
2019-01-27T12:51:01.369Z,98039.17
2019-01-27T12:53:31.402Z,98030.25
2019-01-27T12:56:01.635Z,98029.92
2019-01-27T12:58:31.798Z,98032.91
2019-01-27T13:01:06.325Z,98019.07
2019-01-27T13:03:36.760Z,98022.34
2019-01-27T13:06:07.297Z,98007.09
2019-01-27T13:08:37.407Z,98004.88
2019-01-27T13:11:09.883Z,98002.58
2019-01-27T13:13:40.420Z,98001.39
2019-01-27T13:16:10.805Z,98007.94
2019-01-27T13:18:41.362Z,98005.30
2019-01-27T13:21:11.684Z,97994.89
2019-01-27T13:23:41.707Z,97987.64
2019-01-27T13:26:12.069Z,97992.90
2019-01-27T13:28:42.435Z,97995.30
2019-01-27T13:31:12.582Z,97989.44
2019-01-27T13:33:42.885Z,97989.21
2019-01-27T13:36:13.447Z,97986.30
2019-01-27T13:38:50.863Z,97983.34
2019-01-27T13:41:17.697Z,97984.66
2019-01-27T13:43:48.111Z,97983.03
2019-01-27T13:46:18.602Z,97988.00
2019-01-27T13:48:48.974Z,97989.34
2019-01-27T13:51:19.539Z,97987.64
2019-01-27T13:53:49.851Z,97978.61
2019-01-27T13:56:20.408Z,97982.91
2019-01-27T13:58:50.601Z,97989.59
2019-01-27T14:01:21.255Z,97988.70
2019-01-27T14:03:51.277Z,97989.95
2019-01-27T14:06:21.573Z,97989.98
2019-01-27T14:08:51.844Z,97988.64
2019-01-27T14:11:22.478Z,97987.67
2019-01-27T14:13:52.735Z,97978.09
2019-01-27T14:16:23.348Z,97972.16
2019-01-27T14:18:53.666Z,97965.94
2019-01-27T14:21:24.238Z,97971.88
2019-01-27T14:23:54.951Z,97980.34
2019-01-27T14:26:25.356Z,97968.31
2019-01-27T14:28:55.621Z,97968.19
2019-01-27T14:31:25.870Z,97960.82
2019-01-27T14:33:56.976Z,97961.84
2019-01-27T14:36:27.930Z,97963.67
2019-01-27T14:38:58.622Z,97964.05
2019-01-27T14:42:15.541Z,97964.28
2019-01-27T14:44:48.989Z,97967.13
2019-01-27T14:47:21.690Z,97965.99
2019-01-27T14:49:53.039Z,97968.27
2019-01-27T14:52:23.387Z,97964.39
2019-01-27T14:54:54.332Z,97965.43
2019-01-27T14:57:24.583Z,97960.50
2019-01-27T14:59:54.828Z,97954.45
2019-01-27T15:02:25.171Z,97954.95
2019-01-27T15:04:55.566Z,97949.75
2019-01-27T15:07:25.859Z,97951.41
2019-01-27T15:09:56.739Z,97945.22
2019-01-27T15:12:27.390Z,97952.95
2019-01-27T15:14:57.472Z,97945.94
2019-01-27T15:17:27.830Z,97947.55
2019-01-27T15:19:58.240Z,97943.47
2019-01-27T15:22:28.464Z,97934.15
2019-01-27T15:24:58.890Z,97937.08
2019-01-27T15:27:29.315Z,97929.84
2019-01-27T15:29:59.701Z,97925.63
2019-01-27T15:32:30.279Z,97923.14
2019-01-27T15:35:00.716Z,97924.02
2019-01-27T15:37:31.320Z,97918.58
2019-01-27T15:40:01.950Z,97923.03
2019-01-27T15:42:33.712Z,97921.41
2019-01-27T15:45:04.395Z,97925.70
2019-01-27T15:47:34.650Z,97918.80
2019-01-27T15:50:05.868Z,97927.02
2019-01-27T15:52:36.358Z,97929.15
2019-01-27T15:55:10.301Z,97921.62
2019-01-27T15:57:40.613Z,97920.52
2019-01-27T16:00:15.022Z,97923.80
2019-01-27T16:02:45.312Z,97924.16
2019-01-27T16:05:17.668Z,97920.52
2019-01-27T16:07:47.940Z,97928.70
2019-01-27T16:10:21.010Z,97930.84
2019-01-27T16:12:52.647Z,97930.41
2019-01-27T16:15:25.485Z,97930.22
2019-01-27T16:18:04.619Z,97927.78
2019-01-27T16:20:34.917Z,97932.34
2019-01-27T16:23:22.389Z,97922.50
2019-01-27T16:25:52.675Z,97916.62
2019-01-27T16:28:23.169Z,97930.70
2019-01-27T16:31:18.592Z,97938.58
2019-01-27T16:33:56.628Z,97929.41
2019-01-27T16:36:38.157Z,97923.67
2019-01-27T16:39:12.419Z,97919.94
2019-01-27T16:41:43.766Z,97926.16
2019-01-27T16:44:14.362Z,97927.47
2019-01-27T16:46:44.745Z,97929.59
2019-01-27T16:49:16.785Z,97934.50
2019-01-27T16:51:49.115Z,97942.55
2019-01-27T16:54:19.448Z,97935.00
2019-01-27T16:56:51.030Z,97935.80
2019-01-27T16:59:21.451Z,97936.80
2019-01-27T17:01:51.615Z,97929.27
2019-01-27T17:04:21.787Z,97934.50
2019-01-27T17:06:52.295Z,97933.36
2019-01-27T17:09:22.653Z,97925.93
2019-01-27T17:11:53.310Z,97921.70
2019-01-27T17:14:23.875Z,97894.77
2019-01-27T17:16:54.407Z,97914.57
2019-01-27T18:11:02.664Z,97883.45
2019-01-27T18:32:50.012Z,97909.66
2019-01-27T18:35:36.284Z,97925.09
2019-01-27T19:36:34.999Z,97941.73
2019-01-27T20:05:14.407Z,97928.20
2019-01-27T20:08:03.618Z,97927.20
2019-01-27T20:10:51.777Z,97939.78
2019-01-27T20:13:40.040Z,97943.44
2019-01-27T20:16:35.609Z,97945.63
2019-01-27T20:19:19.099Z,97957.05
2019-01-27T20:22:02.136Z,97953.06
2019-01-27T20:25:00.606Z,97946.85
2019-01-27T20:27:49.689Z,97957.02
2019-01-27T20:30:50.725Z,97961.49
2019-01-27T20:33:45.375Z,97959.14
2019-01-27T20:36:40.520Z,97962.66
2019-01-27T20:39:35.501Z,97957.89
2019-01-27T20:42:25.253Z,97957.91
2019-01-27T20:45:18.699Z,97964.11
2019-01-27T20:48:11.497Z,97964.03
2019-01-27T20:51:06.144Z,97960.27
2019-01-27T20:53:58.163Z,97970.12
2019-01-27T20:56:47.391Z,97973.08
2019-01-27T20:59:34.954Z,97971.77
2019-01-27T21:02:26.214Z,97976.67
2019-01-27T21:05:21.208Z,97973.58
2019-01-27T21:08:05.982Z,97978.64
2019-01-27T21:10:55.284Z,97975.03
2019-01-27T21:13:31.888Z,97982.89
2019-01-27T21:16:19.822Z,97982.55
2019-01-27T21:18:58.500Z,97974.37
2019-01-27T21:21:38.817Z,97975.67
2019-01-27T21:28:37.670Z,97979.08
2019-01-27T21:29:29.725Z,97981.23
2019-01-27T21:32:03.844Z,97985.16
2019-01-27T21:38:59.219Z,97985.30
2019-01-27T21:39:53.136Z,97986.28
2019-01-27T21:42:23.990Z,97976.97
2019-01-27T21:44:56.049Z,97966.83
2019-01-27T21:47:28.764Z,97978.92
2019-01-27T21:49:59.331Z,97988.22
2019-01-27T21:52:30.010Z,97987.08
2019-01-27T21:55:00.429Z,97990.50
2019-01-27T21:57:30.622Z,97996.89
2019-01-27T22:00:01.110Z,97988.87
2019-01-27T22:02:32.183Z,97982.50
2019-01-27T22:05:02.692Z,97981.52
2019-01-27T22:07:30.721Z,97979.55
2019-01-27T22:09:58.668Z,97967.92
2019-01-27T22:12:26.601Z,97964.81
2019-01-27T22:14:54.522Z,97965.47
2019-01-27T22:17:22.443Z,97960.38
2019-01-27T22:21:37.791Z,97949.44
2019-01-27T22:24:05.685Z,97956.95
2019-01-27T22:27:26.331Z,97949.75
2019-01-27T22:29:54.917Z,97950.70
2019-01-27T22:32:22.943Z,97947.45
2019-01-27T22:34:50.790Z,97933.06
2019-01-27T22:37:18.866Z,97941.06
2019-01-27T22:39:48.814Z,97953.98
2019-01-27T22:42:17.295Z,97958.23
2019-01-27T22:44:47.117Z,97953.99
2019-01-27T22:47:15.575Z,97946.47
2019-01-27T22:49:44.663Z,97940.91
2019-01-27T22:52:12.714Z,97941.88
2019-01-27T22:54:40.594Z,97940.05
2019-01-27T22:57:08.532Z,97945.31
2019-01-27T22:59:36.468Z,97939.43
2019-01-27T23:02:05.186Z,97938.77
2019-01-27T23:04:33.189Z,97941.38
2019-01-27T23:07:01.570Z,97933.53
2019-01-27T23:09:29.654Z,97937.11
2019-01-27T23:11:57.644Z,97941.05
2019-01-27T23:14:25.692Z,97940.91
2019-01-27T23:16:53.940Z,97935.67
2019-01-27T23:19:21.924Z,97941.22
2019-01-27T23:21:49.872Z,97942.87
2019-01-27T23:24:17.782Z,97924.06
2019-01-27T23:26:45.907Z,97931.91
2019-01-27T23:30:45.317Z,97921.63
2019-01-27T23:33:13.288Z,97923.73
2019-01-27T23:35:41.177Z,97918.67
2019-01-27T23:38:09.767Z,97918.03
2019-01-27T23:40:37.801Z,97909.20
2019-01-27T23:43:06.131Z,97908.37
2019-01-27T23:45:34.298Z,97906.59
2019-01-27T23:48:05.027Z,97905.94
2019-01-27T23:50:33.039Z,97901.36
2019-01-27T23:53:01.752Z,97900.05
2019-01-27T23:55:29.667Z,97894.49
2019-01-27T23:57:57.702Z,97893.98
